Time;durP1;ratioP1;P1;durP2;ratioP2;P2;SDS_P1;SDS_P2;PMS_P1;PMS_P2;Temp;Humidity;BMP_temperature;BMP_pressure;BME280_temperature;BME280_humidity;BME280_pressure;Samples;Min_cycle;Max_cycle;Signal;HPM_P1;HPM_P2
2021/03/29 00:01:39;;;;;;;19.65;14.02;;;5.30;99.90;;;;;;4983348;28;20062;-65
2021/03/29 00:04:06;;;;;;;17.70;15.25;;;5.30;99.90;;;;;;4977456;28;20497;-63
2021/03/29 00:06:35;;;;;;;22.48;15.23;;;5.30;99.90;;;;;;4982318;28;20483;-69
2021/03/29 00:09:02;;;;;;;23.23;15.95;;;5.30;99.90;;;;;;4978147;28;20046;-67
2021/03/29 00:11:29;;;;;;;24.42;17.85;;;5.30;99.90;;;;;;4981453;28;20058;-66
2021/03/29 00:13:56;;;;;;;25.30;16.23;;;5.30;99.90;;;;;;4984959;28;20523;-75
2021/03/29 00:16:23;;;;;;;28.85;17.35;;;5.40;99.90;;;;;;4978384;28;20085;-69
2021/03/29 00:18:51;;;;;;;25.55;18.13;;;5.30;99.90;;;;;;4981229;28;20089;-65
2021/03/29 00:21:17;;;;;;;24.65;18.65;;;5.40;99.90;;;;;;4995903;28;20629;-69
2021/03/29 00:23:44;;;;;;;22.85;18.42;;;5.30;99.90;;;;;;4981642;28;20042;-71
2021/03/29 00:26:11;;;;;;;28.38;18.52;;;5.40;99.90;;;;;;4981152;28;20050;-69
2021/03/29 00:28:38;;;;;;;30.40;19.35;;;5.40;99.90;;;;;;4981782;28;20045;-69
2021/03/29 00:31:10;;;;;;;32.45;20.90;;;5.40;99.90;;;;;;4981137;28;20054;-68
2021/03/29 00:33:39;;;;;;;31.85;17.92;;;5.40;99.90;;;;;;4981022;28;20043;-64
2021/03/29 00:36:08;;;;;;;31.42;22.25;;;5.40;99.90;;;;;;4978036;28;20054;-67
2021/03/29 00:38:36;;;;;;;33.63;23.25;;;5.40;99.90;;;;;;4984421;28;20062;-69
2021/03/29 00:41:08;;;;;;;29.85;21.80;;;5.40;99.90;;;;;;4983129;28;20054;-66
2021/03/29 00:43:39;;;;;;;32.67;20.50;;;5.40;99.90;;;;;;4980489;28;20807;-67
2021/03/29 00:46:08;;;;;;;32.15;23.05;;;5.40;99.90;;;;;;4979263;28;20062;-70
2021/03/29 00:48:35;;;;;;;31.23;19.75;;;5.40;99.90;;;;;;4978678;28;20049;-69
2021/03/29 00:51:23;;;;;;;40.20;23.50;;;5.40;99.90;;;;;;4981402;28;20054;-65
2021/03/29 00:53:57;;;;;;;32.55;20.65;;;5.40;99.90;;;;;;4979842;28;20140;-64
2021/03/29 00:56:25;;;;;;;35.63;22.70;;;5.40;99.90;;;;;;4973481;28;20042;-63
2021/03/29 00:58:53;;;;;;;31.77;21.10;;;5.50;99.90;;;;;;4979935;28;20054;-65
2021/03/29 01:01:28;;;;;;;40.40;22.55;;;5.40;99.90;;;;;;4981082;28;20047;-63
2021/03/29 01:03:58;;;;;;;31.00;21.40;;;5.40;99.90;;;;;;4983785;28;20061;-70
2021/03/29 01:06:28;;;;;;;31.35;22.27;;;5.50;99.90;;;;;;4979515;28;20049;-75
2021/03/29 01:08:59;;;;;;;36.25;24.13;;;5.50;99.90;;;;;;4980547;28;20108;-68
2021/03/29 01:11:31;;;;;;;35.67;21.73;;;5.50;99.90;;;;;;4979064;28;20042;-64
2021/03/29 01:14:03;;;;;;;31.33;22.25;;;5.50;99.90;;;;;;4971618;28;21465;-69
2021/03/29 01:16:33;;;;;;;34.95;24.80;;;5.50;99.90;;;;;;4976173;28;20050;-68
2021/03/29 01:19:01;;;;;;;35.20;23.02;;;5.50;99.90;;;;;;4976259;28;20061;-72
2021/03/29 01:21:43;;;;;;;34.40;22.35;;;5.50;99.90;;;;;;4979273;28;20676;-69
2021/03/29 01:24:38;;;;;;;32.40;22.48;;;5.50;99.90;;;;;;4976476;28;21714;-66
2021/03/29 01:27:05;;;;;;;32.53;23.48;;;5.50;99.90;;;;;;4979345;28;20058;-69
2021/03/29 01:29:32;;;;;;;39.50;23.17;;;5.50;99.90;;;;;;4978769;28;20057;-67
2021/03/29 01:32:03;;;;;;;43.03;24.40;;;5.50;99.90;;;;;;4979682;28;20481;-71
2021/03/29 01:34:32;;;;;;;37.15;23.70;;;5.50;99.90;;;;;;4980821;28;20060;-71
2021/03/29 01:37:00;;;;;;;45.20;25.27;;;5.50;99.90;;;;;;4979034;28;20055;-68
2021/03/29 01:39:28;;;;;;;35.83;26.58;;;5.50;99.90;;;;;;4981500;28;20042;-68
2021/03/29 01:41:55;;;;;;;44.30;27.35;;;5.50;99.90;;;;;;4980066;28;20383;-73
2021/03/29 01:44:22;;;;;;;41.35;26.13;;;5.50;99.90;;;;;;4977399;28;20116;-69
2021/03/29 01:46:49;;;;;;;43.40;26.27;;;5.50;99.90;;;;;;4977540;28;20049;-66
2021/03/29 01:49:17;;;;;;;43.15;25.13;;;5.50;99.90;;;;;;4980795;28;20476;-75
2021/03/29 01:51:44;;;;;;;42.15;25.88;;;5.60;99.90;;;;;;4978650;28;20120;-66
2021/03/29 01:54:11;;;;;;;38.22;24.50;;;5.60;99.90;;;;;;4978646;28;20147;-68
2021/03/29 01:56:38;;;;;;;40.17;22.45;;;5.60;99.90;;;;;;4979009;28;20046;-68
2021/03/29 01:59:05;;;;;;;33.05;23.23;;;5.60;99.90;;;;;;4982085;28;20061;-64
2021/03/29 02:01:31;;;;;;;41.05;24.83;;;5.60;99.90;;;;;;4978659;28;20759;-66
2021/03/29 02:03:58;;;;;;;39.03;26.17;;;5.60;99.90;;;;;;4978782;28;20062;-70
2021/03/29 02:06:26;;;;;;;34.50;24.50;;;5.60;99.90;;;;;;4979463;28;20385;-65
2021/03/29 02:08:55;;;;;;;43.30;23.38;;;5.70;99.90;;;;;;4979992;28;20416;-63
2021/03/29 02:11:23;;;;;;;34.20;22.67;;;5.60;99.90;;;;;;4977335;28;20074;-70
2021/03/29 02:13:52;;;;;;;39.88;25.23;;;5.70;99.90;;;;;;4975322;28;20176;-65
2021/03/29 02:16:20;;;;;;;42.70;25.20;;;5.70;99.90;;;;;;4973919;28;20050;-63
2021/03/29 02:18:50;;;;;;;37.42;24.65;;;5.70;99.90;;;;;;4976913;28;20065;-65
2021/03/29 02:21:24;;;;;;;37.53;23.05;;;5.70;99.90;;;;;;4977064;28;20159;-68
2021/03/29 02:23:57;;;;;;;40.88;25.77;;;5.70;99.90;;;;;;4991745;28;20484;-63
2021/03/29 02:26:26;;;;;;;35.10;23.85;;;5.70;99.90;;;;;;4974244;28;20404;-63
2021/03/29 02:28:53;;;;;;;39.67;24.48;;;5.70;99.90;;;;;;4979091;28;20511;-66
2021/03/29 02:31:22;;;;;;;35.55;23.27;;;5.70;99.90;;;;;;4981233;28;20054;-63
2021/03/29 02:33:49;;;;;;;34.47;23.33;;;5.80;99.90;;;;;;4979612;28;20539;-66
2021/03/29 02:36:17;;;;;;;39.92;24.52;;;5.80;99.90;;;;;;4979801;28;20065;-74
2021/03/29 02:38:43;;;;;;;37.58;25.45;;;5.80;99.90;;;;;;4980027;28;20049;-68
2021/03/29 02:41:10;;;;;;;37.90;23.50;;;5.80;99.90;;;;;;4981188;28;20484;-76
2021/03/29 02:43:37;;;;;;;38.13;22.60;;;5.80;99.90;;;;;;4980115;28;20515;-66
2021/03/29 02:46:06;;;;;;;34.63;23.33;;;5.80;99.90;;;;;;4980086;28;20046;-65
2021/03/29 02:48:36;;;;;;;33.22;20.98;;;5.90;99.90;;;;;;4980266;28;20461;-66
2021/03/29 02:51:07;;;;;;;39.00;23.02;;;5.80;99.90;;;;;;4980516;28;20054;-66
2021/03/29 02:53:34;;;;;;;;;;;5.80;99.90;;;;;;4983358;28;20050;-70
2021/03/29 02:56:07;;;;;;;35.30;22.38;;;5.80;99.90;;;;;;4977826;28;19933;-72
2021/03/29 02:58:38;;;;;;;36.42;22.08;;;5.80;99.90;;;;;;4978699;28;20058;-70
2021/03/29 03:01:07;;;;;;;35.17;25.45;;;5.80;99.90;;;;;;4981206;28;20043;-76
2021/03/29 03:03:36;;;;;;;34.25;24.20;;;5.80;99.90;;;;;;4982119;28;20681;-71
2021/03/29 03:06:03;;;;;;;31.70;22.05;;;5.80;99.90;;;;;;4977804;28;20162;-68
2021/03/29 03:08:37;;;;;;;37.15;23.60;;;5.80;99.90;;;;;;4980829;28;20058;-67
2021/03/29 03:11:09;;;;;;;38.00;21.85;;;5.80;99.90;;;;;;4980997;28;20157;-65
2021/03/29 03:13:37;;;;;;;32.63;22.55;;;5.80;99.90;;;;;;4980130;28;20488;-66
2021/03/29 03:16:05;;;;;;;39.58;25.67;;;5.80;99.90;;;;;;4976064;28;20523;-66
2021/03/29 03:18:32;;;;;;;37.33;23.98;;;5.80;99.90;;;;;;4980830;28;20054;-65
2021/03/29 03:20:59;;;;;;;32.75;22.85;;;5.80;99.90;;;;;;4979656;28;20066;-71
2021/03/29 03:23:25;;;;;;;34.80;23.17;;;5.80;99.90;;;;;;4980014;28;20504;-67
2021/03/29 03:25:53;;;;;;;42.60;22.73;;;5.80;99.90;;;;;;4982152;28;20050;-71
2021/03/29 03:28:23;;;;;;;35.00;23.05;;;5.80;99.90;;;;;;4980696;28;20122;-67
2021/03/29 03:30:55;;;;;;;37.38;24.00;;;5.80;99.90;;;;;;4980911;28;20042;-63
2021/03/29 03:33:27;;;;;;;34.88;24.23;;;5.80;99.90;;;;;;4995400;28;20054;-67
2021/03/29 03:35:55;;;;;;;34.60;22.52;;;5.80;99.90;;;;;;4980564;28;20050;-70
2021/03/29 03:38:34;;;;;;;31.73;21.52;;;5.80;99.90;;;;;;4978705;28;20154;-66
2021/03/29 03:41:07;;;;;;;40.17;25.52;;;5.80;99.90;;;;;;4980589;28;20073;-66
2021/03/29 03:43:38;;;;;;;36.33;23.48;;;5.80;99.90;;;;;;4979120;28;20068;-70
2021/03/29 03:46:12;;;;;;;;;;;5.80;99.90;;;;;;4996794;28;20097;-67
2021/03/29 03:48:39;;;;;;;31.35;20.27;;;5.80;99.90;;;;;;4977577;28;20088;-65
2021/03/29 03:51:07;;;;;;;33.40;22.60;;;5.80;99.90;;;;;;4981069;28;20571;-63
2021/03/29 03:53:37;;;;;;;31.52;21.23;;;5.80;99.90;;;;;;4976081;28;20050;-73
2021/03/29 03:56:04;;;;;;;32.78;19.27;;;5.80;99.90;;;;;;4979242;28;20137;-65
2021/03/29 03:58:31;;;;;;;39.35;20.60;;;5.80;99.90;;;;;;4977228;28;20058;-70
2021/03/29 04:00:58;;;;;;;28.92;18.20;;;5.80;99.90;;;;;;4979710;28;20059;-64
2021/03/29 04:03:29;;;;;;;28.30;18.70;;;5.80;99.90;;;;;;4979937;28;21298;-63
2021/03/29 04:05:56;;;;;;;25.67;18.15;;;5.80;99.90;;;;;;4978889;28;20050;-65
2021/03/29 04:08:40;;;;;;;25.88;16.90;;;5.80;99.90;;;;;;4977275;28;20476;-64
2021/03/29 04:11:07;;;;;;;26.13;18.02;;;5.90;99.90;;;;;;4982161;28;20396;-74
2021/03/29 04:13:34;;;;;;;23.50;16.50;;;5.90;99.90;;;;;;4976678;28;20050;-67
2021/03/29 04:16:09;;;;;;;30.75;19.17;;;5.90;99.90;;;;;;4976285;28;20054;-66
2021/03/29 04:18:36;;;;;;;25.48;16.45;;;5.90;99.90;;;;;;4980701;28;20120;-65
2021/03/29 04:21:04;;;;;;;25.98;16.85;;;5.80;99.90;;;;;;4978232;28;20079;-64
2021/03/29 04:23:30;;;;;;;20.23;13.75;;;5.80;99.90;;;;;;4979037;28;20057;-65
2021/03/29 04:25:57;;;;;;;22.95;15.98;;;5.80;99.90;;;;;;4979965;28;20500;-64
2021/03/29 04:28:24;;;;;;;25.13;17.35;;;5.80;99.90;;;;;;4979283;28;20444;-66
2021/03/29 04:30:52;;;;;;;20.00;15.00;;;5.80;99.90;;;;;;4979023;28;20051;-68
2021/03/29 04:33:19;;;;;;;20.02;15.43;;;5.80;99.90;;;;;;4981014;28;20059;-72
2021/03/29 04:35:47;;;;;;;21.85;15.75;;;5.70;99.90;;;;;;4979255;28;20104;-72
2021/03/29 04:38:14;;;;;;;27.90;15.60;;;5.70;99.90;;;;;;4975223;28;20050;-67
2021/03/29 04:40:40;;;;;;;32.13;18.27;;;5.70;99.90;;;;;;4980492;28;20050;-73
2021/03/29 04:43:09;;;;;;;28.70;16.00;;;5.70;99.90;;;;;;4977201;28;20629;-66
2021/03/29 04:45:36;;;;;;;23.85;14.68;;;5.70;99.90;;;;;;4980488;28;20047;-69
2021/03/29 04:48:03;;;;;;;32.38;16.05;;;5.70;99.90;;;;;;4978428;28;20053;-76
2021/03/29 04:50:30;;;;;;;22.75;13.15;;;5.80;99.90;;;;;;4979241;28;20057;-69
2021/03/29 04:52:56;;;;;;;22.77;15.15;;;5.80;99.90;;;;;;4979126;28;20364;-71
2021/03/29 04:55:23;;;;;;;24.77;14.07;;;5.80;99.90;;;;;;4979014;28;20050;-71
2021/03/29 04:57:49;;;;;;;25.48;14.23;;;5.80;99.90;;;;;;4978659;28;20058;-68
2021/03/29 05:00:16;;;;;;;25.23;15.73;;;5.80;99.90;;;;;;4976443;28;20046;-66
2021/03/29 05:02:43;;;;;;;19.80;13.95;;;5.90;99.90;;;;;;4979897;28;20066;-63
2021/03/29 05:05:10;;;;;;;27.00;15.07;;;5.90;99.90;;;;;;4976394;28;20208;-71
2021/03/29 05:07:36;;;;;;;19.73;13.57;;;5.90;99.90;;;;;;4978324;28;20058;-63
2021/03/29 05:10:09;;;;;;;27.23;15.82;;;5.90;99.90;;;;;;4976233;28;20054;-64
2021/03/29 05:12:35;;;;;;;25.80;13.73;;;5.90;99.90;;;;;;4978797;28;20531;-69
2021/03/29 05:15:04;;;;;;;25.42;15.35;;;5.90;99.90;;;;;;4976290;28;20076;-66
2021/03/29 05:17:30;;;;;;;22.58;15.35;;;6.00;99.90;;;;;;4978576;28;20169;-64
2021/03/29 05:19:57;;;;;;;22.20;14.32;;;6.00;99.90;;;;;;4979005;28;21047;-63
2021/03/29 05:22:24;;;;;;;24.55;14.88;;;6.00;99.90;;;;;;4976216;28;20054;-68
2021/03/29 05:24:50;;;;;;;26.63;18.02;;;6.00;99.90;;;;;;4978062;28;20113;-67
2021/03/29 05:27:16;;;;;;;25.42;16.20;;;6.00;99.90;;;;;;4977341;28;20116;-72
2021/03/29 05:29:43;;;;;;;21.48;14.75;;;6.10;99.90;;;;;;4978539;28;20089;-61
2021/03/29 05:32:15;;;;;;;25.75;14.45;;;6.10;99.90;;;;;;4977329;28;20046;-67
2021/03/29 05:34:43;;;;;;;19.85;14.15;;;6.10;99.90;;;;;;4977196;28;20164;-64
2021/03/29 05:37:10;;;;;;;19.38;13.50;;;6.10;99.90;;;;;;4980809;28;20078;-66
2021/03/29 05:39:38;;;;;;;21.73;13.23;;;6.20;99.90;;;;;;4976508;28;20054;-64
2021/03/29 05:42:08;;;;;;;20.25;14.18;;;6.20;99.90;;;;;;4973528;28;20108;-66
2021/03/29 05:44:35;;;;;;;;;;;6.20;99.90;;;;;;4977654;28;20050;-67
2021/03/29 05:47:03;;;;;;;22.05;13.43;;;6.30;99.90;;;;;;4977276;28;19930;-66
2021/03/29 05:49:33;;;;;;;18.67;14.25;;;6.30;99.90;;;;;;4976580;28;20434;-66
2021/03/29 05:52:00;;;;;;;19.77;13.80;;;6.30;99.90;;;;;;4975446;28;20484;-62
2021/03/29 05:54:27;;;;;;;23.42;14.73;;;6.30;99.90;;;;;;4974322;28;20058;-68
2021/03/29 05:56:54;;;;;;;24.35;14.32;;;6.40;99.90;;;;;;4977044;28;20117;-65
2021/03/29 05:59:40;;;;;;;21.65;14.88;;;6.40;99.90;;;;;;4970954;28;20943;-65
2021/03/29 06:02:09;;;;;;;20.38;14.05;;;6.40;99.90;;;;;;4976225;28;20050;-69
2021/03/29 06:04:47;;;;;;;20.60;13.88;;;6.50;99.90;;;;;;4978941;28;20057;-67
2021/03/29 06:07:28;;;;;;;22.58;14.05;;;6.60;99.90;;;;;;4981406;28;20051;-67
2021/03/29 06:10:05;;;;;;;17.88;13.13;;;6.60;99.90;;;;;;4981576;28;20058;-67
2021/03/29 06:12:45;;;;;;;16.67;13.02;;;6.60;99.90;;;;;;4981060;28;20057;-65
2021/03/29 06:15:12;;;;;;;16.60;11.63;;;6.70;99.90;;;;;;4982249;28;20127;-67
2021/03/29 06:17:39;;;;;;;18.42;11.38;;;6.70;99.90;;;;;;4983529;28;20177;-67
2021/03/29 06:20:07;;;;;;;18.42;11.77;;;6.70;99.90;;;;;;4982071;28;20635;-63
2021/03/29 06:22:38;;;;;;;16.63;10.20;;;6.80;99.90;;;;;;4982702;28;20051;-62
2021/03/29 06:25:11;;;;;;;18.40;12.85;;;6.80;99.90;;;;;;4981833;28;20055;-64
2021/03/29 06:27:44;;;;;;;13.38;10.15;;;6.80;99.90;;;;;;4983184;28;20112;-63
2021/03/29 06:30:19;;;;;;;15.70;10.70;;;6.80;99.90;;;;;;4981868;28;20043;-66
2021/03/29 06:32:57;;;;;;;13.93;8.85;;;6.90;99.90;;;;;;4984282;28;20042;-67
2021/03/29 06:35:32;;;;;;;12.75;9.25;;;6.90;99.90;;;;;;4982621;28;20046;-69
2021/03/29 06:38:13;;;;;;;9.90;8.13;;;6.90;99.90;;;;;;4982291;28;20050;-69
2021/03/29 06:41:03;;;;;;;15.77;8.07;;;6.90;99.90;;;;;;4981495;28;20093;-69
2021/03/29 06:43:31;;;;;;;9.60;8.32;;;7.00;99.90;;;;;;4981825;28;20073;-68
2021/03/29 06:46:20;;;;;;;8.88;7.75;;;7.10;99.90;;;;;;4986556;28;20484;-64
2021/03/29 06:48:47;;;;;;;13.27;7.60;;;7.10;99.90;;;;;;4985256;28;20052;-66
2021/03/29 06:51:16;;;;;;;16.10;9.65;;;7.20;99.90;;;;;;4989585;28;20042;-71
2021/03/29 06:53:57;;;;;;;11.70;9.30;;;7.20;99.90;;;;;;4986781;28;20072;-67
2021/03/29 06:56:33;;;;;;;14.30;10.18;;;7.20;99.90;;;;;;4981434;28;20134;-67
2021/03/29 06:59:02;;;;;;;11.68;10.40;;;7.20;99.90;;;;;;4983569;28;20518;-68
2021/03/29 07:01:29;;;;;;;14.27;9.73;;;7.30;99.90;;;;;;4981829;28;20046;-62
2021/03/29 07:03:57;;;;;;;13.65;10.15;;;7.30;99.90;;;;;;4983431;28;20054;-69
2021/03/29 07:06:26;;;;;;;14.32;8.73;;;7.30;99.90;;;;;;4979188;28;20596;-65
2021/03/29 07:08:53;;;;;;;14.48;10.25;;;7.30;99.90;;;;;;4983360;28;20046;-62
2021/03/29 07:11:21;;;;;;;15.57;9.43;;;7.40;99.90;;;;;;4983087;28;20455;-64
2021/03/29 07:13:48;;;;;;;14.70;10.48;;;7.50;99.90;;;;;;4982910;28;20069;-64
2021/03/29 07:16:16;;;;;;;13.75;9.43;;;7.60;99.90;;;;;;4973386;28;20132;-69
2021/03/29 07:18:42;;;;;;;13.25;8.70;;;7.60;99.90;;;;;;4972909;28;20058;-68
2021/03/29 07:21:11;;;;;;;13.77;8.88;;;7.70;99.90;;;;;;4973738;28;20574;-68
2021/03/29 07:23:39;;;;;;;10.63;7.95;;;7.70;99.90;;;;;;4972374;28;20050;-66
2021/03/29 07:26:47;;;;;;;11.82;7.68;;;7.80;99.90;;;;;;4970563;28;20096;-71
2021/03/29 07:29:32;;;;;;;10.75;7.70;;;7.90;99.90;;;;;;4972373;28;20062;-70
2021/03/29 07:32:04;;;;;;;13.35;7.43;;;7.90;99.90;;;;;;4972672;28;20524;-68
2021/03/29 07:34:49;;;;;;;12.23;8.50;;;8.00;99.90;;;;;;4972395;28;20054;-71
2021/03/29 07:37:45;;;;;;;10.13;7.45;;;8.00;99.90;;;;;;4974176;28;20050;-73
2021/03/29 07:40:20;;;;;;;10.23;7.60;;;8.10;99.90;;;;;;4970506;28;20851;-70
2021/03/29 07:42:50;;;;;;;8.95;7.00;;;8.10;99.90;;;;;;4972557;28;20073;-66
2021/03/29 07:45:19;;;;;;;11.88;9.23;;;8.20;99.90;;;;;;4986346;28;20089;-71
2021/03/29 07:47:57;;;;;;;9.93;6.80;;;8.20;99.90;;;;;;4974518;28;20545;-63
2021/03/29 07:50:25;;;;;;;14.27;8.20;;;8.20;99.90;;;;;;4971566;28;20047;-69
2021/03/29 07:52:59;;;;;;;9.63;7.00;;;8.30;99.90;;;;;;4973504;28;20622;-67
2021/03/29 07:55:29;;;;;;;10.82;6.78;;;8.30;99.90;;;;;;4971874;28;20065;-64
2021/03/29 07:57:56;;;;;;;11.73;7.03;;;8.40;99.90;;;;;;4974406;28;20058;-72
2021/03/29 08:00:25;;;;;;;9.80;7.15;;;8.40;99.90;;;;;;4974138;28;20491;-68
2021/03/29 08:02:52;;;;;;;12.85;9.98;;;8.50;99.90;;;;;;4975104;28;20080;-73
2021/03/29 08:05:37;;;;;;;9.95;7.55;;;8.60;99.90;;;;;;4978010;28;20053;-66
2021/03/29 08:08:27;;;;;;;9.77;7.05;;;8.60;99.90;;;;;;4977378;28;20691;-67
2021/03/29 08:11:03;;;;;;;13.32;7.25;;;8.70;99.90;;;;;;4979406;28;20144;-65
2021/03/29 08:13:41;;;;;;;7.07;5.25;;;8.70;99.90;;;;;;4990738;28;20038;-71
2021/03/29 08:16:13;;;;;;;10.90;7.63;;;8.80;99.90;;;;;;4976932;28;20047;-70
2021/03/29 08:19:14;;;;;;;14.48;8.30;;;8.80;99.90;;;;;;4979453;28;20054;-69
2021/03/29 08:22:01;;;;;;;12.75;8.02;;;8.80;99.90;;;;;;4977659;28;20155;-65
2021/03/29 08:24:41;;;;;;;8.65;7.13;;;9.00;99.90;;;;;;4974479;28;20065;-63
2021/03/29 08:27:20;;;;;;;8.60;7.17;;;9.10;99.90;;;;;;4975030;28;20460;-69
2021/03/29 08:29:53;;;;;;;13.23;8.27;;;9.20;99.90;;;;;;4977580;28;20303;-65
2021/03/29 08:32:40;;;;;;;10.18;8.10;;;9.20;99.90;;;;;;4977602;28;20432;-64
2021/03/29 08:35:11;;;;;;;11.88;9.55;;;9.20;99.90;;;;;;4975667;28;20100;-63
2021/03/29 08:37:40;;;;;;;12.43;8.77;;;9.20;99.90;;;;;;4977498;28;20058;-63
2021/03/29 08:40:15;;;;;;;13.00;9.52;;;9.10;99.90;;;;;;4975403;28;20098;-63
2021/03/29 08:42:44;;;;;;;13.23;8.48;;;8.90;99.90;;;;;;4978082;28;20104;-63
2021/03/29 08:45:13;;;;;;;14.98;10.38;;;8.90;99.90;;;;;;4980222;28;20054;-65
2021/03/29 08:47:42;;;;;;;14.52;9.98;;;8.90;99.90;;;;;;4977132;28;20385;-63
2021/03/29 08:50:18;;;;;;;16.25;10.40;;;8.90;99.90;;;;;;4977397;28;20657;-64
2021/03/29 08:52:54;;;;;;;14.25;9.77;;;8.80;99.90;;;;;;4976802;28;20058;-69
2021/03/29 08:55:23;;;;;;;15.10;10.57;;;8.80;99.90;;;;;;4978311;28;20150;-66
2021/03/29 08:57:53;;;;;;;17.95;9.82;;;8.70;99.90;;;;;;4977062;28;20093;-64
2021/03/29 09:00:25;;;;;;;15.73;10.90;;;8.90;99.90;;;;;;4976625;28;20054;-66
2021/03/29 09:02:52;;;;;;;14.77;11.40;;;9.00;99.90;;;;;;4979384;28;20050;-67
2021/03/29 09:05:21;;;;;;;13.55;10.88;;;9.10;99.90;;;;;;4976856;28;22482;-67
2021/03/29 09:07:51;;;;;;;12.80;10.40;;;9.20;99.90;;;;;;4976965;28;20401;-70
2021/03/29 09:10:36;;;;;;;18.85;12.77;;;9.10;99.90;;;;;;4974645;28;20105;-64
2021/03/29 09:13:12;;;;;;;17.00;12.70;;;9.10;99.90;;;;;;4979226;28;20051;-64
2021/03/29 09:15:49;;;;;;;15.57;11.82;;;9.00;99.90;;;;;;4976491;28;20101;-65
2021/03/29 09:18:18;;;;;;;13.85;10.95;;;8.90;99.90;;;;;;4983349;28;20108;-67
2021/03/29 09:20:51;;;;;;;21.27;12.50;;;8.80;99.90;;;;;;4992144;28;20459;-70
2021/03/29 09:23:20;;;;;;;18.50;13.40;;;8.80;99.90;;;;;;4980063;28;20050;-65
2021/03/29 09:25:51;;;;;;;20.80;13.15;;;8.70;99.90;;;;;;4978697;28;20066;-66
2021/03/29 09:28:45;;;;;;;24.95;16.48;;;8.60;99.90;;;;;;4980239;28;20057;-65
2021/03/29 09:31:22;;;;;;;22.23;15.63;;;8.50;99.90;;;;;;4978515;28;20038;-63
2021/03/29 09:33:50;;;;;;;24.55;16.83;;;8.60;99.90;;;;;;4981030;28;20157;-66
2021/03/29 09:36:23;;;;;;;28.90;18.20;;;8.50;99.90;;;;;;4978143;28;20058;-66
2021/03/29 09:39:09;;;;;;;31.63;18.48;;;8.40;99.90;;;;;;4978882;28;20055;-64
2021/03/29 09:41:36;;;;;;;32.65;20.48;;;8.30;99.90;;;;;;4979510;28;20469;-66
2021/03/29 09:44:08;;;;;;;28.20;20.35;;;8.20;99.90;;;;;;4980038;28;20051;-64
2021/03/29 09:46:35;;;;;;;28.20;19.55;;;8.40;99.90;;;;;;4973339;28;20053;-69
2021/03/29 09:49:14;;;;;;;32.75;21.65;;;8.30;99.90;;;;;;4982518;28;20086;-63
2021/03/29 09:51:43;;;;;;;34.88;20.70;;;8.20;99.90;;;;;;4982061;28;20062;-63
2021/03/29 09:54:32;;;;;;;35.92;21.27;;;8.20;99.90;;;;;;4976617;28;20163;-69
2021/03/29 09:57:12;;;;;;;32.38;19.98;;;8.30;99.90;;;;;;4976530;28;20085;-64
2021/03/29 09:59:41;;;;;;;33.08;23.73;;;8.30;99.90;;;;;;4980005;28;20050;-62
2021/03/29 10:02:27;;;;;;;33.05;21.85;;;8.20;99.90;;;;;;4980124;28;20065;-71
2021/03/29 10:05:05;;;;;;;31.17;19.92;;;8.20;99.90;;;;;;4980902;28;21047;-62
2021/03/29 10:07:32;;;;;;;30.65;21.25;;;8.30;99.90;;;;;;4978354;28;20070;-64
2021/03/29 10:10:06;;;;;;;30.52;21.98;;;8.30;99.90;;;;;;4973154;28;20078;-68
2021/03/29 10:12:34;;;;;;;30.20;21.27;;;8.30;99.90;;;;;;4979559;28;20046;-65
2021/03/29 10:15:12;;;;;;;35.10;21.50;;;8.30;99.90;;;;;;4973475;28;20057;-66
2021/03/29 10:17:39;;;;;;;32.13;21.20;;;8.30;99.90;;;;;;4976785;28;20105;-68
2021/03/29 10:20:07;;;;;;;34.80;21.52;;;8.40;99.90;;;;;;4977202;28;20050;-63
2021/03/29 10:22:35;;;;;;;28.05;19.48;;;8.50;99.90;;;;;;4975511;28;20717;-68
2021/03/29 10:25:13;;;;;;;30.92;20.52;;;8.60;99.90;;;;;;4976534;28;20046;-74
2021/03/29 10:27:40;;;;;;;34.17;20.08;;;8.50;99.90;;;;;;4981303;28;20137;-75
2021/03/29 10:30:08;;;;;;;33.20;19.80;;;8.50;99.90;;;;;;4982167;28;20043;-72
2021/03/29 10:32:35;;;;;;;39.92;21.65;;;8.50;99.90;;;;;;4978691;28;20039;-70
2021/03/29 10:35:03;;;;;;;36.38;20.77;;;8.30;99.90;;;;;;4979868;28;20062;-66
2021/03/29 10:37:32;;;;;;;36.70;21.73;;;8.40;99.90;;;;;;4976436;28;20054;-64
2021/03/29 10:40:00;;;;;;;36.45;22.00;;;8.40;99.90;;;;;;4978960;28;20444;-73
2021/03/29 10:42:31;;;;;;;33.30;20.75;;;8.40;99.90;;;;;;4978933;28;20061;-66
2021/03/29 10:44:58;;;;;;;42.45;22.50;;;8.50;99.90;;;;;;4980731;28;20416;-66
2021/03/29 10:47:24;;;;;;;39.22;24.70;;;8.40;99.90;;;;;;4976799;28;20042;-68
2021/03/29 10:49:52;;;;;;;36.63;21.95;;;8.50;99.90;;;;;;4979352;28;20077;-66
2021/03/29 10:52:20;;;;;;;37.78;21.85;;;8.40;99.90;;;;;;4977651;28;20070;-66
2021/03/29 10:54:48;;;;;;;44.25;21.70;;;8.40;99.90;;;;;;4983611;28;20050;-66
2021/03/29 10:57:14;;;;;;;37.35;21.55;;;8.50;99.90;;;;;;4979998;28;20432;-70
2021/03/29 10:59:41;;;;;;;29.63;18.85;;;8.60;99.90;;;;;;4984132;28;20078;-67
2021/03/29 11:02:08;;;;;;;36.13;21.83;;;8.50;99.90;;;;;;4979809;28;22002;-67
2021/03/29 11:04:35;;;;;;;35.95;20.00;;;8.50;99.90;;;;;;4982675;28;20208;-65
2021/03/29 11:07:02;;;;;;;29.83;18.92;;;8.50;99.90;;;;;;4980407;28;21437;-62
2021/03/29 11:09:28;;;;;;;32.65;20.55;;;8.40;99.90;;;;;;4981276;28;20054;-62
2021/03/29 11:11:55;;;;;;;31.00;20.77;;;8.40;99.90;;;;;;4986440;28;20050;-71
2021/03/29 11:14:22;;;;;;;27.58;18.02;;;8.50;99.90;;;;;;4981589;28;20038;-67
2021/03/29 11:16:50;;;;;;;28.02;18.23;;;8.70;99.90;;;;;;4983571;28;20104;-66
2021/03/29 11:19:17;;;;;;;26.55;17.33;;;8.80;99.90;;;;;;4980191;28;20076;-70
2021/03/29 11:21:44;;;;;;;22.17;16.77;;;8.70;99.90;;;;;;4983408;28;20042;-67
2021/03/29 11:24:12;;;;;;;30.23;18.50;;;8.70;99.90;;;;;;4980346;28;20153;-63
2021/03/29 11:26:39;;;;;;;28.67;17.77;;;8.70;99.90;;;;;;4980864;28;20054;-67
2021/03/29 11:29:05;;;;;;;25.52;18.65;;;8.70;99.90;;;;;;4985242;28;20121;-73
2021/03/29 11:31:32;;;;;;;30.65;20.08;;;8.80;99.90;;;;;;4981305;28;20053;-63
2021/03/29 11:33:58;;;;;;;26.20;19.13;;;8.80;99.90;;;;;;4981560;28;20046;-69
2021/03/29 11:36:25;;;;;;;27.33;19.40;;;8.80;99.90;;;;;;4979993;28;20062;-62
2021/03/29 11:38:51;;;;;;;33.15;21.58;;;8.80;99.90;;;;;;4982843;28;20057;-64
2021/03/29 11:41:20;;;;;;;26.55;19.30;;;8.70;99.90;;;;;;4978158;28;21018;-67
2021/03/29 11:43:47;;;;;;;33.25;21.30;;;8.50;99.90;;;;;;4983067;28;20093;-64
2021/03/29 11:46:14;;;;;;;36.42;23.75;;;8.50;99.90;;;;;;4977152;28;20054;-63
2021/03/29 11:48:40;;;;;;;30.33;19.02;;;8.60;99.90;;;;;;4979032;28;20058;-69
2021/03/29 11:51:08;;;;;;;33.10;21.15;;;8.50;99.90;;;;;;4977818;28;20042;-67
2021/03/29 11:53:36;;;;;;;28.13;19.95;;;8.40;99.90;;;;;;4978529;28;20047;-68
2021/03/29 11:56:04;;;;;;;32.63;21.20;;;8.40;99.90;;;;;;4978792;28;20105;-73
2021/03/29 11:58:30;;;;;;;26.60;18.70;;;8.40;99.90;;;;;;4979548;28;20054;-64
2021/03/29 12:01:04;;;;;;;30.10;19.88;;;8.40;99.90;;;;;;4980456;28;20057;-64
2021/03/29 12:03:39;;;;;;;27.75;19.23;;;8.40;99.90;;;;;;4978874;28;20632;-63
2021/03/29 12:06:16;;;;;;;30.98;19.42;;;8.30;99.90;;;;;;4979018;28;20050;-64
2021/03/29 12:09:00;;;;;;;28.20;19.85;;;8.30;99.90;;;;;;4981930;28;20376;-70
2021/03/29 12:14:13;;;;;;;29.35;21.42;;;8.10;99.90;;;;;;4978827;28;20054;-65
2021/03/29 12:16:42;;;;;;;30.65;21.45;;;8.10;99.90;;;;;;4979250;28;20050;-65
2021/03/29 12:19:10;;;;;;;29.75;19.52;;;8.10;99.90;;;;;;4980706;28;20050;-67
2021/03/29 12:21:38;;;;;;;29.00;19.48;;;8.10;99.90;;;;;;4978385;28;20057;-65
2021/03/29 12:24:13;;;;;;;30.83;21.05;;;8.10;99.90;;;;;;4978906;28;20050;-65
2021/03/29 12:26:41;;;;;;;34.03;19.55;;;8.00;99.90;;;;;;4977629;28;20472;-68
2021/03/29 12:29:11;;;;;;;33.95;22.05;;;8.00;99.90;;;;;;4979708;28;20067;-63
2021/03/29 12:31:40;;;;;;;32.50;21.45;;;8.00;99.90;;;;;;4979677;28;20057;-64
2021/03/29 12:34:12;;;;;;;31.40;17.80;;;8.10;99.90;;;;;;4976036;28;20041;-67
2021/03/29 12:36:50;;;;;;;27.35;16.38;;;8.10;99.90;;;;;;4980059;28;20117;-70
2021/03/29 12:41:50;;;;;;;30.42;17.85;;;8.10;99.90;;;;;;4979998;28;20138;-70
2021/03/29 12:44:18;;;;;;;28.85;18.90;;;8.10;99.90;;;;;;4976007;28;20448;-67
2021/03/29 12:46:48;;;;;;;24.85;17.45;;;8.20;99.90;;;;;;4978701;28;20057;-67
2021/03/29 12:49:16;;;;;;;28.92;17.83;;;8.20;99.90;;;;;;4979676;28;20128;-70
2021/03/29 12:51:43;;;;;;;27.67;18.23;;;8.40;99.90;;;;;;4979703;28;20424;-70
2021/03/29 12:54:13;;;;;;;31.88;18.02;;;8.40;99.90;;;;;;4977412;28;20124;-70
2021/03/29 12:56:43;;;;;;;25.65;16.20;;;8.40;99.90;;;;;;4978607;28;20043;-63
2021/03/29 12:59:10;;;;;;;24.10;16.23;;;8.40;99.90;;;;;;4977261;28;20117;-68
2021/03/29 13:01:38;;;;;;;22.48;15.23;;;8.40;99.90;;;;;;4980552;28;20161;-67
2021/03/29 13:04:14;;;;;;;19.00;14.60;;;8.40;99.90;;;;;;4975785;28;20104;-67